sensor_id;sensor_type;location;lat;lon;timestamp;pressure;altitude;pressure_sealevel;temperature;humidity
47154;BME280;32907;41.412;2.164;2023-08-07T00:00:05;100776.28;;;27.41;46.47
47154;BME280;32907;41.412;2.164;2023-08-07T00:02:36;100745.78;;;27.25;46.16
47154;BME280;32907;41.412;2.164;2023-08-07T00:05:05;100764.34;;;27.37;46.48
47154;BME280;32907;41.412;2.164;2023-08-07T00:07:33;100723.56;;;27.10;46.62
47154;BME280;32907;41.412;2.164;2023-08-07T00:10:01;100778.38;;;27.44;46.47
47154;BME280;32907;41.412;2.164;2023-08-07T00:12:31;100764.81;;;27.39;46.65
47154;BME280;32907;41.412;2.164;2023-08-07T00:14:58;100772.06;;;27.44;46.43
47154;BME280;32907;41.412;2.164;2023-08-07T00:17:26;100763.47;;;27.45;46.35
47154;BME280;32907;41.412;2.164;2023-08-07T00:19:54;100731.91;;;27.22;46.67
47154;BME280;32907;41.412;2.164;2023-08-07T00:22:22;100733.31;;;27.28;46.38
47154;BME280;32907;41.412;2.164;2023-08-07T00:24:50;100746.88;;;27.33;46.81
47154;BME280;32907;41.412;2.164;2023-08-07T00:27:20;100755.06;;;27.42;46.41
47154;BME280;32907;41.412;2.164;2023-08-07T00:29:48;100748.47;;;27.34;46.32
47154;BME280;32907;41.412;2.164;2023-08-07T00:32:16;100758.63;;;27.42;46.48
47154;BME280;32907;41.412;2.164;2023-08-07T00:34:44;100733.16;;;27.24;46.46
47154;BME280;32907;41.412;2.164;2023-08-07T00:37:12;100769.31;;;27.44;46.48
47154;BME280;32907;41.412;2.164;2023-08-07T00:39:40;100769.31;;;27.44;46.49
47154;BME280;32907;41.412;2.164;2023-08-07T00:42:08;100719.94;;;27.18;46.58
47154;BME280;32907;41.412;2.164;2023-08-07T00:44:36;100740.78;;;27.27;46.59
47154;BME280;32907;41.412;2.164;2023-08-07T00:47:06;100754.25;;;27.41;46.44
47154;BME280;32907;41.412;2.164;2023-08-07T00:49:34;100723.50;;;27.18;46.26
47154;BME280;32907;41.412;2.164;2023-08-07T00:52:03;100756.44;;;27.36;46.11
47154;BME280;32907;41.412;2.164;2023-08-07T00:54:31;100758.97;;;27.41;45.98
47154;BME280;32907;41.412;2.164;2023-08-07T00:57:12;100735.13;;;27.24;45.56
47154;BME280;32907;41.412;2.164;2023-08-07T00:59:43;100749.16;;;27.31;45.42
47154;BME280;32907;41.412;2.164;2023-08-07T01:02:12;100726.25;;;27.18;45.09
47154;BME280;32907;41.412;2.164;2023-08-07T01:04:41;100754.94;;;27.38;45.02
47154;BME280;32907;41.412;2.164;2023-08-07T01:07:09;100735.56;;;27.26;44.63
47154;BME280;32907;41.412;2.164;2023-08-07T01:09:37;100757.22;;;27.36;44.67
47154;BME280;32907;41.412;2.164;2023-08-07T01:12:27;100707.38;;;27.08;43.86
47154;BME280;32907;41.412;2.164;2023-08-07T01:15:05;100740.91;;;27.31;44.08
47154;BME280;32907;41.412;2.164;2023-08-07T01:17:37;100753.06;;;27.30;43.89
47154;BME280;32907;41.412;2.164;2023-08-07T01:20:07;100722.56;;;27.14;43.97
47154;BME280;32907;41.412;2.164;2023-08-07T01:22:37;100742.22;;;27.25;44.29
47154;BME280;32907;41.412;2.164;2023-08-07T01:25:05;100757.88;;;27.33;43.86
47154;BME280;32907;41.412;2.164;2023-08-07T01:27:37;100752.38;;;27.33;43.62
47154;BME280;32907;41.412;2.164;2023-08-07T01:35:25;100756.94;;;27.29;42.96
47154;BME280;32907;41.412;2.164;2023-08-07T01:37:56;100740.16;;;27.22;43.72
47154;BME280;32907;41.412;2.164;2023-08-07T01:40:27;100759.38;;;27.30;43.78
47154;BME280;32907;41.412;2.164;2023-08-07T01:42:55;100725.38;;;27.06;43.38
47154;BME280;32907;41.412;2.164;2023-08-07T01:45:25;100704.66;;;26.99;43.87
47154;BME280;32907;41.412;2.164;2023-08-07T01:47:53;100742.56;;;27.23;43.34
47154;BME280;32907;41.412;2.164;2023-08-07T01:50:23;100754.66;;;27.31;43.61
47154;BME280;32907;41.412;2.164;2023-08-07T01:52:53;100741.09;;;27.26;43.53
47154;BME280;32907;41.412;2.164;2023-08-07T01:55:23;100753.06;;;27.30;43.13
47154;BME280;32907;41.412;2.164;2023-08-07T01:57:52;100730.34;;;27.12;43.22
47154;BME280;32907;41.412;2.164;2023-08-07T02:00:20;100720.00;;;27.09;43.13
47154;BME280;32907;41.412;2.164;2023-08-07T02:02:48;100716.44;;;27.09;42.67
47154;BME280;32907;41.412;2.164;2023-08-07T02:05:16;100716.66;;;27.03;42.72
47154;BME280;32907;41.412;2.164;2023-08-07T02:07:45;100753.53;;;27.32;43.16
47154;BME280;32907;41.412;2.164;2023-08-07T02:10:13;100726.47;;;27.13;43.34
47154;BME280;32907;41.412;2.164;2023-08-07T02:12:42;100734.38;;;27.15;43.21
47154;BME280;32907;41.412;2.164;2023-08-07T02:15:10;100752.09;;;27.26;43.50
47154;BME280;32907;41.412;2.164;2023-08-07T02:17:38;100766.75;;;27.39;43.36
47154;BME280;32907;41.412;2.164;2023-08-07T02:20:09;100753.97;;;27.34;43.39
47154;BME280;32907;41.412;2.164;2023-08-07T02:22:37;100763.66;;;27.40;43.66
47154;BME280;32907;41.412;2.164;2023-08-07T02:25:05;100711.97;;;27.04;43.51
47154;BME280;32907;41.412;2.164;2023-08-07T02:27:33;100760.16;;;27.31;43.55
47154;BME280;32907;41.412;2.164;2023-08-07T02:30:01;100765.78;;;27.35;43.58
47154;BME280;32907;41.412;2.164;2023-08-07T02:32:31;100743.91;;;27.17;43.71
47154;BME280;32907;41.412;2.164;2023-08-07T02:34:59;100754.38;;;27.24;43.87
47154;BME280;32907;41.412;2.164;2023-08-07T02:37:27;100752.78;;;27.23;43.73
47154;BME280;32907;41.412;2.164;2023-08-07T02:39:55;100776.16;;;27.38;43.75
47154;BME280;32907;41.412;2.164;2023-08-07T02:42:22;100798.81;;;27.43;43.61
47154;BME280;32907;41.412;2.164;2023-08-07T02:44:50;100746.31;;;27.19;43.87
47154;BME280;32907;41.412;2.164;2023-08-07T02:47:19;100796.88;;;27.44;43.34
47154;BME280;32907;41.412;2.164;2023-08-07T02:49:46;100791.34;;;27.44;43.58
47154;BME280;32907;41.412;2.164;2023-08-07T02:52:14;100770.50;;;27.34;43.45
47154;BME280;32907;41.412;2.164;2023-08-07T02:54:42;100758.22;;;27.31;43.52
47154;BME280;32907;41.412;2.164;2023-08-07T02:57:10;100780.34;;;27.44;43.88
47154;BME280;32907;41.412;2.164;2023-08-07T02:59:37;100781.16;;;27.44;44.14
47154;BME280;32907;41.412;2.164;2023-08-07T03:02:05;100759.72;;;27.29;43.70
47154;BME280;32907;41.412;2.164;2023-08-07T03:04:33;100747.97;;;27.20;43.47
47154;BME280;32907;41.412;2.164;2023-08-07T03:07:01;100760.16;;;27.31;43.41
47154;BME280;32907;41.412;2.164;2023-08-07T03:09:30;100785.84;;;27.44;43.62
47154;BME280;32907;41.412;2.164;2023-08-07T03:11:58;100742.63;;;27.15;43.48
47154;BME280;32907;41.412;2.164;2023-08-07T03:14:31;100760.84;;;27.28;43.36
47154;BME280;32907;41.412;2.164;2023-08-07T03:16:59;100765.69;;;27.31;43.50
47154;BME280;32907;41.412;2.164;2023-08-07T03:19:27;100724.34;;;27.10;43.17
47154;BME280;32907;41.412;2.164;2023-08-07T03:21:55;100778.69;;;27.43;43.12
47154;BME280;32907;41.412;2.164;2023-08-07T03:24:23;100760.16;;;27.31;43.44
47154;BME280;32907;41.412;2.164;2023-08-07T03:26:51;100767.28;;;27.32;43.45
47154;BME280;32907;41.412;2.164;2023-08-07T03:29:18;100775.53;;;27.32;43.30
47154;BME280;32907;41.412;2.164;2023-08-07T03:31:47;100751.97;;;27.22;43.38
47154;BME280;32907;41.412;2.164;2023-08-07T03:34:15;100764.25;;;27.25;43.29
47154;BME280;32907;41.412;2.164;2023-08-07T03:36:43;100794.41;;;27.42;43.47
47154;BME280;32907;41.412;2.164;2023-08-07T03:39:10;100785.56;;;27.37;43.29
47154;BME280;32907;41.412;2.164;2023-08-07T03:41:39;100772.50;;;27.25;42.97
47154;BME280;32907;41.412;2.164;2023-08-07T03:44:10;100765.88;;;27.26;43.08
47154;BME280;32907;41.412;2.164;2023-08-07T03:46:38;100792.00;;;27.41;43.18
47154;BME280;32907;41.412;2.164;2023-08-07T03:49:06;100762.88;;;27.10;43.28
47154;BME280;32907;41.412;2.164;2023-08-07T03:51:34;100775.88;;;27.30;43.07
47154;BME280;32907;41.412;2.164;2023-08-07T03:54:02;100800.59;;;27.39;42.88
47154;BME280;32907;41.412;2.164;2023-08-07T03:56:30;100805.78;;;27.41;42.88
47154;BME280;32907;41.412;2.164;2023-08-07T03:59:04;100787.44;;;27.24;43.30
47154;BME280;32907;41.412;2.164;2023-08-07T04:01:33;100727.19;;;26.93;43.09
47154;BME280;32907;41.412;2.164;2023-08-07T04:04:04;100779.63;;;27.26;43.13
47154;BME280;32907;41.412;2.164;2023-08-07T04:06:32;100763.84;;;27.14;42.95
47154;BME280;32907;41.412;2.164;2023-08-07T04:08:59;100799.81;;;27.39;42.84
47154;BME280;32907;41.412;2.164;2023-08-07T04:11:27;100754.78;;;27.14;43.10
47154;BME280;32907;41.412;2.164;2023-08-07T04:13:55;100773.84;;;27.19;43.18
47154;BME280;32907;41.412;2.164;2023-08-07T04:16:23;100766.88;;;27.21;42.86
47154;BME280;32907;41.412;2.164;2023-08-07T04:18:51;100808.88;;;27.39;43.14
47154;BME280;32907;41.412;2.164;2023-08-07T04:21:19;100806.78;;;27.36;43.05
47154;BME280;32907;41.412;2.164;2023-08-07T04:23:49;100785.34;;;27.21;43.04
47154;BME280;32907;41.412;2.164;2023-08-07T04:26:17;100793.91;;;27.28;43.09
47154;BME280;32907;41.412;2.164;2023-08-07T04:28:45;100801.47;;;27.31;43.22
47154;BME280;32907;41.412;2.164;2023-08-07T04:31:13;100760.34;;;27.05;43.08
47154;BME280;32907;41.412;2.164;2023-08-07T04:33:41;100804.22;;;27.31;43.21
47154;BME280;32907;41.412;2.164;2023-08-07T04:36:09;100781.63;;;27.17;42.96
47154;BME280;32907;41.412;2.164;2023-08-07T04:38:37;100806.97;;;27.31;43.19
47154;BME280;32907;41.412;2.164;2023-08-07T04:41:05;100807.31;;;27.29;43.06
47154;BME280;32907;41.412;2.164;2023-08-07T04:43:32;100796.16;;;27.26;42.68
47154;BME280;32907;41.412;2.164;2023-08-07T04:46:00;100788.28;;;27.16;42.97
47154;BME280;32907;41.412;2.164;2023-08-07T04:48:28;100753.78;;;26.89;43.34
47154;BME280;32907;41.412;2.164;2023-08-07T04:50:56;100789.63;;;27.10;43.29
47154;BME280;32907;41.412;2.164;2023-08-07T04:53:25;100796.94;;;27.06;43.12
47154;BME280;32907;41.412;2.164;2023-08-07T04:55:53;100823.75;;;27.17;42.97
47154;BME280;32907;41.412;2.164;2023-08-07T04:58:21;100812.38;;;27.19;43.55
47154;BME280;32907;41.412;2.164;2023-08-07T05:00:57;100808.69;;;27.15;43.42
47154;BME280;32907;41.412;2.164;2023-08-07T05:03:25;100759.94;;;26.86;43.23
47154;BME280;32907;41.412;2.164;2023-08-07T05:05:58;100790.44;;;27.01;43.09
47154;BME280;32907;41.412;2.164;2023-08-07T05:08:26;100796.94;;;27.06;43.37
47154;BME280;32907;41.412;2.164;2023-08-07T05:10:54;100819.66;;;27.23;43.48
47154;BME280;32907;41.412;2.164;2023-08-07T05:13:22;100768.19;;;26.86;43.41
47154;BME280;32907;41.412;2.164;2023-08-07T05:15:50;100803.25;;;27.06;43.32
47154;BME280;32907;41.412;2.164;2023-08-07T05:18:18;100832.97;;;27.21;43.33
47154;BME280;32907;41.412;2.164;2023-08-07T05:20:46;100812.13;;;27.12;43.05
47154;BME280;32907;41.412;2.164;2023-08-07T05:23:13;100819.25;;;27.13;43.32
47154;BME280;32907;41.412;2.164;2023-08-07T05:25:45;100833.09;;;27.25;43.19
47154;BME280;32907;41.412;2.164;2023-08-07T05:28:16;100810.38;;;27.07;43.66
47154;BME280;32907;41.412;2.164;2023-08-07T05:30:45;100817.63;;;27.12;43.45
47154;BME280;32907;41.412;2.164;2023-08-07T05:33:13;100782.75;;;26.86;43.14
47154;BME280;32907;41.412;2.164;2023-08-07T05:35:43;100829.97;;;27.06;43.40
47154;BME280;32907;41.412;2.164;2023-08-07T05:38:11;100836.75;;;26.99;43.44
47154;BME280;32907;41.412;2.164;2023-08-07T05:40:38;100789.31;;;26.73;43.88
47154;BME280;32907;41.412;2.164;2023-08-07T05:43:08;100827.31;;;26.80;43.89
47154;BME280;32907;41.412;2.164;2023-08-07T05:45:36;100844.56;;;26.97;44.15
47154;BME280;32907;41.412;2.164;2023-08-07T05:48:06;100830.66;;;26.85;43.99
47154;BME280;32907;41.412;2.164;2023-08-07T05:50:34;100799.63;;;26.76;43.34
47154;BME280;32907;41.412;2.164;2023-08-07T05:53:03;100845.69;;;27.05;42.87
47154;BME280;32907;41.412;2.164;2023-08-07T05:55:32;100804.34;;;26.75;43.29
47154;BME280;32907;41.412;2.164;2023-08-07T05:58:00;100825.03;;;26.82;43.07
47154;BME280;32907;41.412;2.164;2023-08-07T06:00:28;100854.88;;;27.00;44.06
47154;BME280;32907;41.412;2.164;2023-08-07T06:02:57;100809.75;;;26.63;43.99
47154;BME280;32907;41.412;2.164;2023-08-07T06:05:26;100841.06;;;26.80;43.62
47154;BME280;32907;41.412;2.164;2023-08-07T06:07:54;100845.22;;;26.86;43.14
47154;BME280;32907;41.412;2.164;2023-08-07T06:10:21;100823.75;;;26.70;43.60
47154;BME280;32907;41.412;2.164;2023-08-07T06:12:50;100854.78;;;26.88;43.45
47154;BME280;32907;41.412;2.164;2023-08-07T06:15:18;100789.88;;;26.49;43.73
47154;BME280;32907;41.412;2.164;2023-08-07T06:17:46;100848.31;;;26.84;43.70
47154;BME280;32907;41.412;2.164;2023-08-07T06:20:16;100853.34;;;26.82;43.34
47154;BME280;32907;41.412;2.164;2023-08-07T06:22:44;100858.84;;;26.82;43.22
47154;BME280;32907;41.412;2.164;2023-08-07T06:25:12;100863.03;;;26.88;42.78
47154;BME280;32907;41.412;2.164;2023-08-07T06:27:40;100746.28;;;26.13;43.27
47154;BME280;32907;41.412;2.164;2023-08-07T06:30:08;100872.94;;;26.81;43.36
47154;BME280;32907;41.412;2.164;2023-08-07T06:32:36;100823.03;;;26.53;43.30
47154;BME280;32907;41.412;2.164;2023-08-07T06:35:05;100822.88;;;26.49;44.08
47154;BME280;32907;41.412;2.164;2023-08-07T06:37:33;100861.47;;;26.70;43.57
47154;BME280;32907;41.412;2.164;2023-08-07T06:40:01;100813.50;;;26.33;44.00
47154;BME280;32907;41.412;2.164;2023-08-07T06:42:30;100851.00;;;26.55;43.93
47154;BME280;32907;41.412;2.164;2023-08-07T06:44:58;100873.78;;;26.72;43.45
47154;BME280;32907;41.412;2.164;2023-08-07T06:47:26;100862.81;;;26.64;43.52
47154;BME280;32907;41.412;2.164;2023-08-07T06:49:54;100863.75;;;26.68;43.35
47154;BME280;32907;41.412;2.164;2023-08-07T06:52:21;100886.03;;;26.84;42.85
47154;BME280;32907;41.412;2.164;2023-08-07T06:54:49;100889.25;;;26.86;43.21
47154;BME280;32907;41.412;2.164;2023-08-07T06:57:18;100848.78;;;26.48;42.84
47154;BME280;32907;41.412;2.164;2023-08-07T06:59:46;100852.34;;;26.48;42.96
47154;BME280;32907;41.412;2.164;2023-08-07T07:02:14;100840.34;;;26.44;43.78
47154;BME280;32907;41.412;2.164;2023-08-07T07:04:42;100898.47;;;26.90;43.03
47154;BME280;32907;41.412;2.164;2023-08-07T07:07:10;100868.59;;;26.71;43.26
47154;BME280;32907;41.412;2.164;2023-08-07T07:09:38;100858.56;;;26.75;42.48
47154;BME280;32907;41.412;2.164;2023-08-07T07:12:06;100880.97;;;26.94;42.94
47154;BME280;32907;41.412;2.164;2023-08-07T07:14:34;100876.59;;;26.93;42.59
47154;BME280;32907;41.412;2.164;2023-08-07T07:17:02;100882.28;;;26.97;42.44
47154;BME280;32907;41.412;2.164;2023-08-07T07:19:30;100892.66;;;26.91;42.41
47154;BME280;32907;41.412;2.164;2023-08-07T07:21:58;100855.03;;;26.66;42.73
47154;BME280;32907;41.412;2.164;2023-08-07T07:24:26;100898.44;;;26.98;43.02
47154;BME280;32907;41.412;2.164;2023-08-07T07:26:54;100909.00;;;26.96;43.12
47154;BME280;32907;41.412;2.164;2023-08-07T07:29:22;100841.81;;;26.51;42.74
47154;BME280;32907;41.412;2.164;2023-08-07T07:31:50;100846.63;;;26.54;42.63
47154;BME280;32907;41.412;2.164;2023-08-07T07:34:18;100864.22;;;26.70;46.11
47154;BME280;32907;41.412;2.164;2023-08-07T07:36:46;100894.25;;;26.92;44.57
47154;BME280;32907;41.412;2.164;2023-08-07T07:39:14;100897.31;;;26.99;43.68
47154;BME280;32907;41.412;2.164;2023-08-07T07:41:42;100898.28;;;26.95;43.21
47154;BME280;32907;41.412;2.164;2023-08-07T07:44:10;100868.13;;;26.69;43.41
47154;BME280;32907;41.412;2.164;2023-08-07T07:46:39;100856.16;;;26.65;43.63
47154;BME280;32907;41.412;2.164;2023-08-07T07:49:07;100896.72;;;26.85;43.60
47154;BME280;32907;41.412;2.164;2023-08-07T07:51:35;100901.56;;;26.88;42.95
47154;BME280;32907;41.412;2.164;2023-08-07T07:54:04;100877.97;;;26.70;43.67
47154;BME280;32907;41.412;2.164;2023-08-07T07:56:35;100848.78;;;26.48;43.46
47154;BME280;32907;41.412;2.164;2023-08-07T07:59:04;100890.09;;;26.77;43.03
47154;BME280;32907;41.412;2.164;2023-08-07T08:01:35;100863.44;;;26.61;43.70
47154;BME280;32907;41.412;2.164;2023-08-07T08:04:03;100883.28;;;26.84;43.23
47154;BME280;32907;41.412;2.164;2023-08-07T08:06:31;100879.25;;;26.81;43.23
47154;BME280;32907;41.412;2.164;2023-08-07T08:09:01;100915.09;;;27.02;43.22
47154;BME280;32907;41.412;2.164;2023-08-07T08:11:32;100914.50;;;26.96;42.84
47154;BME280;32907;41.412;2.164;2023-08-07T08:14:00;100884.28;;;26.79;43.18
47154;BME280;32907;41.412;2.164;2023-08-07T08:16:28;100866.00;;;26.74;43.72
47154;BME280;32907;41.412;2.164;2023-08-07T08:18:56;100900.91;;;26.91;42.95
47154;BME280;32907;41.412;2.164;2023-08-07T08:21:24;100906.25;;;26.96;42.38
47154;BME280;32907;41.412;2.164;2023-08-07T08:23:52;100892.00;;;26.86;42.93
47154;BME280;32907;41.412;2.164;2023-08-07T08:26:20;100916.72;;;27.03;44.76
47154;BME280;32907;41.412;2.164;2023-08-07T08:28:48;100897.81;;;26.93;45.75
47154;BME280;32907;41.412;2.164;2023-08-07T08:31:16;100897.47;;;26.94;43.33
47154;BME280;32907;41.412;2.164;2023-08-07T08:33:43;100923.38;;;26.93;43.06
47154;BME280;32907;41.412;2.164;2023-08-07T08:36:12;100917.47;;;26.74;42.28
47154;BME280;32907;41.412;2.164;2023-08-07T08:38:39;100915.19;;;26.76;42.81
47154;BME280;32907;41.412;2.164;2023-08-07T08:41:08;100895.31;;;26.62;42.22
47154;BME280;32907;41.412;2.164;2023-08-07T08:43:39;100908.75;;;26.72;43.11
47154;BME280;32907;41.412;2.164;2023-08-07T08:46:08;100917.78;;;26.81;42.78
47154;BME280;32907;41.412;2.164;2023-08-07T08:48:40;100925.00;;;26.94;43.41
47154;BME280;32907;41.412;2.164;2023-08-07T08:51:09;100935.38;;;26.97;42.67
47154;BME280;32907;41.412;2.164;2023-08-07T08:53:39;100872.72;;;26.47;42.70
47154;BME280;32907;41.412;2.164;2023-08-07T08:56:07;100933.16;;;26.82;43.14
47154;BME280;32907;41.412;2.164;2023-08-07T08:58:35;100906.50;;;26.57;42.34
47154;BME280;32907;41.412;2.164;2023-08-07T09:01:04;100934.78;;;26.74;42.23
47154;BME280;32907;41.412;2.164;2023-08-07T09:03:32;100928.50;;;26.57;42.42
47154;BME280;32907;41.412;2.164;2023-08-07T09:06:00;100911.03;;;26.53;42.49
47154;BME280;32907;41.412;2.164;2023-08-07T09:08:29;100925.41;;;26.67;43.97
47154;BME280;32907;41.412;2.164;2023-08-07T09:10:57;100943.66;;;26.89;43.51
47154;BME280;32907;41.412;2.164;2023-08-07T09:13:26;100943.63;;;26.97;43.38
47154;BME280;32907;41.412;2.164;2023-08-07T09:15:58;100926.81;;;26.90;43.51
47154;BME280;32907;41.412;2.164;2023-08-07T09:18:27;100920.00;;;26.96;43.73
47154;BME280;32907;41.412;2.164;2023-08-07T09:20:56;100924.16;;;27.02;43.11
47154;BME280;32907;41.412;2.164;2023-08-07T09:23:25;100945.38;;;27.19;43.45
47154;BME280;32907;41.412;2.164;2023-08-07T09:26:03;100945.50;;;27.23;43.46
47154;BME280;32907;41.412;2.164;2023-08-07T09:28:32;100915.28;;;27.06;43.99
47154;BME280;32907;41.412;2.164;2023-08-07T09:31:00;100926.09;;;27.11;43.51
47154;BME280;32907;41.412;2.164;2023-08-07T09:33:31;100924.50;;;27.10;42.77
47154;BME280;32907;41.412;2.164;2023-08-07T09:36:00;100944.38;;;27.24;42.85
47154;BME280;32907;41.412;2.164;2023-08-07T09:38:29;100943.38;;;27.28;43.06
47154;BME280;32907;41.412;2.164;2023-08-07T09:41:00;100949.03;;;27.32;43.28
47154;BME280;32907;41.412;2.164;2023-08-07T09:43:37;100941.09;;;27.30;41.98
47154;BME280;32907;41.412;2.164;2023-08-07T09:46:06;100961.50;;;27.29;43.13
47154;BME280;32907;41.412;2.164;2023-08-07T09:48:41;100932.22;;;27.25;42.98
47154;BME280;32907;41.412;2.164;2023-08-07T09:51:10;100927.06;;;27.15;42.63
47154;BME280;32907;41.412;2.164;2023-08-07T09:53:38;100918.66;;;27.20;42.94
47154;BME280;32907;41.412;2.164;2023-08-07T09:56:06;100941.91;;;27.31;42.45
47154;BME280;32907;41.412;2.164;2023-08-07T09:58:34;100912.03;;;27.12;42.47
47154;BME280;32907;41.412;2.164;2023-08-07T10:01:05;100943.50;;;27.32;43.07
47154;BME280;32907;41.412;2.164;2023-08-07T10:03:35;100935.94;;;27.29;42.76
47154;BME280;32907;41.412;2.164;2023-08-07T10:06:04;100920.91;;;27.18;43.20
47154;BME280;32907;41.412;2.164;2023-08-07T10:08:33;100938.63;;;27.38;43.18
47154;BME280;32907;41.412;2.164;2023-08-07T10:11:02;100939.09;;;27.40;42.67
47154;BME280;32907;41.412;2.164;2023-08-07T10:13:31;100942.19;;;27.38;42.76
47154;BME280;32907;41.412;2.164;2023-08-07T10:16:06;100929.28;;;27.30;42.87
47154;BME280;32907;41.412;2.164;2023-08-07T10:18:35;100917.81;;;27.28;43.39
47154;BME280;32907;41.412;2.164;2023-08-07T10:21:06;100929.75;;;27.32;43.56
47154;BME280;32907;41.412;2.164;2023-08-07T10:23:35;100948.66;;;27.42;43.51
47154;BME280;32907;41.412;2.164;2023-08-07T10:26:06;100938.13;;;27.44;42.95
47154;BME280;32907;41.412;2.164;2023-08-07T10:28:39;100936.53;;;27.43;42.54
47154;BME280;32907;41.412;2.164;2023-08-07T10:31:09;100934.59;;;27.35;42.72
47154;BME280;32907;41.412;2.164;2023-08-07T10:33:41;100934.41;;;27.40;42.43
47154;BME280;32907;41.412;2.164;2023-08-07T10:36:10;100919.03;;;27.39;42.48
47154;BME280;32907;41.412;2.164;2023-08-07T10:39:06;100918.06;;;27.35;43.05
47154;BME280;32907;41.412;2.164;2023-08-07T10:41:53;100902.59;;;27.22;43.63
47154;BME280;32907;41.412;2.164;2023-08-07T10:44:48;100919.50;;;27.41;43.41
47154;BME280;32907;41.412;2.164;2023-08-07T10:47:32;100905.63;;;27.29;42.59
47154;BME280;32907;41.412;2.164;2023-08-07T10:50:01;100916.75;;;27.41;42.55
47154;BME280;32907;41.412;2.164;2023-08-07T10:52:28;100909.50;;;27.37;42.51
47154;BME280;32907;41.412;2.164;2023-08-07T10:54:56;100913.34;;;27.44;42.68
47154;BME280;32907;41.412;2.164;2023-08-07T10:57:31;100869.41;;;27.18;42.47
47154;BME280;32907;41.412;2.164;2023-08-07T11:00:03;100882.94;;;27.32;42.43
47154;BME280;32907;41.412;2.164;2023-08-07T11:02:41;100920.75;;;27.52;42.89
47154;BME280;32907;41.412;2.164;2023-08-07T11:05:10;100903.25;;;27.48;42.59
47154;BME280;32907;41.412;2.164;2023-08-07T11:07:41;100890.72;;;27.30;43.21
47154;BME280;32907;41.412;2.164;2023-08-07T11:10:13;100928.81;;;27.57;42.31
47154;BME280;32907;41.412;2.164;2023-08-07T11:12:43;100886.97;;;27.35;42.42
47154;BME280;32907;41.412;2.164;2023-08-07T11:15:15;100916.50;;;27.55;42.41
47154;BME280;32907;41.412;2.164;2023-08-07T11:17:43;100906.00;;;27.48;43.38
47154;BME280;32907;41.412;2.164;2023-08-07T11:20:11;100846.84;;;27.25;42.85
47154;BME280;32907;41.412;2.164;2023-08-07T11:22:39;100921.63;;;27.65;42.73
47154;BME280;32907;41.412;2.164;2023-08-07T11:25:07;100892.06;;;27.53;42.76
47154;BME280;32907;41.412;2.164;2023-08-07T11:27:38;100871.41;;;27.39;42.58
47154;BME280;32907;41.412;2.164;2023-08-07T11:30:11;100901.25;;;27.57;42.97
47154;BME280;32907;41.412;2.164;2023-08-07T11:32:39;100879.75;;;27.51;43.32
47154;BME280;32907;41.412;2.164;2023-08-07T11:35:07;100889.06;;;27.67;43.27
47154;BME280;32907;41.412;2.164;2023-08-07T11:37:35;100871.16;;;27.52;42.66
47154;BME280;32907;41.412;2.164;2023-08-07T11:40:04;100898.63;;;27.70;42.90
47154;BME280;32907;41.412;2.164;2023-08-07T11:42:31;100868.13;;;27.66;42.63
47154;BME280;32907;41.412;2.164;2023-08-07T11:45:01;100838.13;;;27.52;42.10
47154;BME280;32907;41.412;2.164;2023-08-07T11:47:29;100839.03;;;27.56;41.65
47154;BME280;32907;41.412;2.164;2023-08-07T11:49:58;100859.75;;;27.63;42.02
47154;BME280;32907;41.412;2.164;2023-08-07T11:52:26;100874.38;;;27.84;41.45
47154;BME280;32907;41.412;2.164;2023-08-07T11:54:54;100874.84;;;27.86;41.71
47154;BME280;32907;41.412;2.164;2023-08-07T11:57:21;100856.34;;;27.86;41.46
47154;BME280;32907;41.412;2.164;2023-08-07T11:59:50;100849.56;;;27.84;41.82
47154;BME280;32907;41.412;2.164;2023-08-07T12:02:24;100836.78;;;27.79;42.20
47154;BME280;32907;41.412;2.164;2023-08-07T12:04:57;100860.19;;;27.94;41.79
47154;BME280;32907;41.412;2.164;2023-08-07T12:07:27;100849.63;;;27.96;41.81
47154;BME280;32907;41.412;2.164;2023-08-07T12:10:03;100826.56;;;27.80;42.25
47154;BME280;32907;41.412;2.164;2023-08-07T12:12:36;100827.66;;;27.87;42.22
47154;BME280;32907;41.412;2.164;2023-08-07T12:15:10;100848.00;;;27.95;42.26
47154;BME280;32907;41.412;2.164;2023-08-07T12:17:38;100839.06;;;27.98;42.01
47154;BME280;32907;41.412;2.164;2023-08-07T12:20:07;100848.88;;;28.08;42.44
47154;BME280;32907;41.412;2.164;2023-08-07T12:22:38;100834.16;;;28.04;42.19
47154;BME280;32907;41.412;2.164;2023-08-07T12:25:06;100846.25;;;28.11;42.55
47154;BME280;32907;41.412;2.164;2023-08-07T12:27:34;100817.00;;;27.98;42.45
47154;BME280;32907;41.412;2.164;2023-08-07T12:30:02;100835.97;;;28.00;42.37
47154;BME280;32907;41.412;2.164;2023-08-07T12:32:30;100810.56;;;27.94;42.59
47154;BME280;32907;41.412;2.164;2023-08-07T12:34:58;100815.13;;;27.90;42.48
47154;BME280;32907;41.412;2.164;2023-08-07T12:37:28;100833.69;;;28.02;42.17
47154;BME280;32907;41.412;2.164;2023-08-07T12:39:57;100842.34;;;28.12;42.34
47154;BME280;32907;41.412;2.164;2023-08-07T12:42:45;100856.13;;;28.12;42.35
47154;BME280;32907;41.412;2.164;2023-08-07T12:45:12;100834.16;;;28.04;42.43
47154;BME280;32907;41.412;2.164;2023-08-07T12:47:42;100846.69;;;28.13;42.68
47154;BME280;32907;41.412;2.164;2023-08-07T12:50:10;100812.63;;;27.97;42.89
47154;BME280;32907;41.412;2.164;2023-08-07T12:52:38;100847.38;;;28.10;42.72
47154;BME280;32907;41.412;2.164;2023-08-07T12:55:06;100837.91;;;27.99;42.98
47154;BME280;32907;41.412;2.164;2023-08-07T12:57:35;100850.00;;;28.07;42.90
47154;BME280;32907;41.412;2.164;2023-08-07T13:00:03;100838.94;;;27.95;42.97
47154;BME280;32907;41.412;2.164;2023-08-07T13:02:32;100833.34;;;28.03;43.15
47154;BME280;32907;41.412;2.164;2023-08-07T13:05:00;100831.66;;;27.90;43.08